Time;durP1;ratioP1;P1;durP2;ratioP2;P2;SDS_P1;SDS_P2;PMS_P1;PMS_P2;Temp;Humidity;BMP_temperature;BMP_pressure;BME280_temperature;BME280_humidity;BME280_pressure;Samples;Min_cycle;Max_cycle;Signal;HPM_P1;HPM_P2
2023/01/03 00:02:11;;;;;;;;;;;;;;;17.62;69.60;101507.02;2241343;78;52359;-76
2023/01/03 00:05:13;;;;;;;;;;;;;;;17.61;69.64;101503.98;2264533;78;50397;-76
2023/01/03 00:08:14;;;;;;;;;;;;;;;17.63;69.61;101511.36;2257736;77;51486;-76
2023/01/03 00:12:22;;;;;;;;;;;;;;;17.61;69.65;101509.33;2266714;77;51516;-76
2023/01/03 00:14:26;;;;;;;;;;;;;;;17.62;69.61;101515.52;2260482;78;22351;-76
2023/01/03 00:17:27;;;;;;;;;;;;;;;17.62;69.62;101519.06;2263298;78;50823;-76
2023/01/03 00:20:29;;;;;;;;;;;;;;;17.62;69.59;101516.39;2266199;78;51421;-76
2023/01/03 00:23:30;;;;;;;;;;;;;;;17.62;69.57;101518.20;2266297;78;50619;-76
2023/01/03 00:26:32;;;;;;;;;;;;;;;17.63;69.55;101531.44;2240972;78;52353;-76
2023/01/03 00:29:34;;;;;;;;;;;;;;;17.64;69.50;101536.28;2256588;78;52154;-76
2023/01/03 00:32:35;;;;;;;;;;;;;;;17.62;69.48;101544.48;2268208;77;51451;-76
2023/01/03 00:35:37;;;;;;;;;;;;;;;17.63;69.50;101548.00;2270921;76;51377;-76
2023/01/03 00:38:38;;;;;;;;;;;;;;;17.63;69.50;101552.02;2245276;78;52481;-76
2023/01/03 00:41:40;;;;;;;;;;;;;;;17.64;69.47;101559.87;2269196;77;51514;-76
2023/01/03 00:44:42;;;;;;;;;;;;;;;17.64;69.41;101565.72;2269216;77;51509;-76
2023/01/03 00:47:43;;;;;;;;;;;;;;;17.63;69.40;101572.91;2268934;77;51484;-75
2023/01/03 00:50:45;;;;;;;;;;;;;;;17.63;69.35;101570.24;2245717;78;52561;-76
2023/01/03 00:53:47;;;;;;;;;;;;;;;17.62;69.37;101569.91;2270921;77;50334;-76
2023/01/03 00:56:49;;;;;;;;;;;;;;;17.61;69.44;101575.41;2269069;78;51416;-77
2023/01/03 00:59:50;;;;;;;;;;;;;;;17.60;69.45;101583.94;2267446;77;50683;-76
2023/01/03 01:02:55;;;;;;;;;;;;;;;17.61;69.39;101588.28;2241210;78;52148;-76
2023/01/03 01:05:57;;;;;;;;;;;;;;;17.61;69.38;101592.30;2264563;78;50333;-76
2023/01/03 01:08:59;;;;;;;;;;;;;;;17.63;69.29;101592.98;2266078;78;50648;-76
2023/01/03 01:12:00;;;;;;;;;;;;;;;17.62;69.30;101585.10;2264810;78;51525;-76
2023/01/03 01:15:02;;;;;;;;;;;;;;;17.62;69.31;101594.00;2241612;78;52441;-76
2023/01/03 01:18:04;;;;;;;;;;;;;;;17.61;69.29;101603.00;2264924;78;50397;-76
2023/01/03 01:21:06;;;;;;;;;;;;;;;17.61;69.28;101606.18;2264923;78;50745;-77
2023/01/03 01:24:07;;;;;;;;;;;;;;;17.60;69.29;101608.53;2266475;78;50685;-76
2023/01/03 01:27:09;;;;;;;;;;;;;;;17.58;69.19;101618.03;2244101;78;52478;-75
2023/01/03 01:30:11;;;;;;;;;;;;;;;17.60;69.24;101633.45;2238231;78;51487;-75
2023/01/03 01:33:12;;;;;;;;;;;;;;;17.60;69.21;101640.64;2266143;78;51464;-75
2023/01/03 01:36:18;;;;;;;;;;;;;;;17.60;69.22;101644.16;2265888;78;50267;-75
2023/01/03 01:39:20;;;;;;;;;;;;;;;17.62;69.18;101641.30;2240896;78;51940;-75
2023/01/03 01:45:41;;;;;;;;;;;;;;;17.61;69.26;101645.82;2266212;78;22465;-75
2023/01/03 01:48:43;;;;;;;;;;;;;;;17.61;69.21;101657.86;2264184;78;51475;-76
2023/01/03 01:51:44;;;;;;;;;;;;;;;17.60;69.20;101645.99;2266029;78;52426;-75
2023/01/03 01:54:47;;;;;;;;;;;;;;;17.61;69.23;101658.37;2264427;78;50027;-74
2023/01/03 01:57:48;;;;;;;;;;;;;;;17.60;69.16;101662.05;2256573;78;51585;-74
2023/01/03 02:00:50;;;;;;;;;;;;;;;17.60;69.21;101666.90;2267569;78;51421;-74
2023/01/03 02:03:55;;;;;;;;;;;;;;;17.62;69.14;101669.41;2270648;77;51637;-74
2023/01/03 02:06:56;;;;;;;;;;;;;;;17.61;69.10;101679.27;2268866;78;50001;-74
2023/01/03 02:09:58;;;;;;;;;;;;;;;17.62;69.08;101670.27;2268868;77;51459;-76
2023/01/03 02:13:07;;;;;;;;;;;;;;;17.62;69.06;101671.61;2269152;77;51424;-75
2023/01/03 02:16:19;;;;;;;;;;;;;;;17.61;69.11;101674.42;2245320;78;51173;-76
2023/01/03 02:19:32;;;;;;;;;;;;;;;17.61;69.07;101673.09;2269427;78;50310;-75
2023/01/03 02:22:51;;;;;;;;;;;;;;;17.61;69.04;101683.29;2269718;78;51506;-75
2023/01/03 02:26:07;;;;;;;;;;;;;;;17.60;69.11;101695.00;2269593;78;50655;-75
2023/01/03 02:29:25;;;;;;;;;;;;;;;17.58;69.12;101694.80;2236834;78;50986;-75
2023/01/03 02:32:32;;;;;;;;;;;;;;;17.58;69.04;101709.02;2269145;77;51471;-75
2023/01/03 02:35:50;;;;;;;;;;;;;;;17.57;69.07;101712.70;2269536;78;22300;-75
2023/01/03 02:38:56;;;;;;;;;;;;;;;17.58;69.03;101713.03;2269321;78;50707;-75
2023/01/03 02:45:39;;;;;;;;;;;;;;;17.59;69.01;101720.56;2269405;78;22386;-74
2023/01/03 02:48:55;;;;;;;;;;;;;;;17.57;69.06;101720.73;2268898;77;50291;-75
2023/01/03 02:52:01;;;;;;;;;;;;;;;17.57;69.00;101724.75;2269117;78;51483;-76
2023/01/03 02:55:04;;;;;;;;;;;;;;;17.58;69.00;101725.58;2269132;77;50101;-75
2023/01/03 02:58:07;;;;;;;;;;;;;;;17.54;69.12;101722.34;2268429;77;50314;-75
2023/01/03 03:01:09;;;;;;;;;;;;;;;17.54;69.05;101725.02;2265711;77;50448;-74
2023/01/03 03:04:14;;;;;;;;;;;;;;;17.53;69.01;101726.02;2264385;78;50382;-74
2023/01/03 03:07:23;;;;;;;;;;;;;;;17.56;69.06;101743.62;2265890;78;50101;-76
2023/01/03 03:13:41;;;;;;;;;;;;;;;17.56;68.98;101749.80;2224792;78;22336;-75
2023/01/03 03:16:50;;;;;;;;;;;;;;;17.56;68.92;101748.47;2264061;78;50687;-75
2023/01/03 03:26:33;;;;;;;;;;;;;;;17.54;68.98;101751.78;2264515;78;22317;-74
2023/01/03 03:29:35;;;;;;;;;;;;;;;17.54;68.93;101754.45;2258162;77;50318;-74
2023/01/03 03:32:37;;;;;;;;;;;;;;;17.53;68.92;101759.47;2256784;78;49540;-74
2023/01/03 03:35:43;;;;;;;;;;;;;;;17.51;68.82;101762.79;2232093;79;51603;-74
2023/01/03 03:38:45;;;;;;;;;;;;;;;17.55;68.77;101769.54;2231951;78;50007;-74
2023/01/03 03:45:09;;;;;;;;;;;;;;;17.54;68.80;101772.36;2232477;78;22382;-74
2023/01/03 03:48:25;;;;;;;;;;;;;;;17.53;68.77;101774.19;2231855;78;50338;-73
2023/01/03 03:51:27;;;;;;;;;;;;;;;17.52;68.75;101776.53;2232026;78;51496;-74
2023/01/03 03:54:30;;;;;;;;;;;;;;;17.54;68.73;101781.22;2232147;78;51491;-74
2023/01/03 03:57:33;;;;;;;;;;;;;;;17.53;68.73;101786.23;2207908;79;52432;-74
2023/01/03 04:00:37;;;;;;;;;;;;;;;17.54;68.77;101787.91;2260867;77;50405;-74
2023/01/03 04:03:38;;;;;;;;;;;;;;;17.54;68.72;101794.59;2269023;78;50316;-74
2023/01/03 04:06:41;;;;;;;;;;;;;;;17.54;68.69;101791.92;2268684;78;50405;-74
2023/01/03 04:09:43;;;;;;;;;;;;;;;17.53;68.77;101798.78;2245440;78;52571;-74
2023/01/03 04:12:45;;;;;;;;;;;;;;;17.54;68.71;101806.64;2268888;78;51414;-75
2023/01/03 04:15:47;;;;;;;;;;;;;;;17.56;68.74;101811.86;2268971;77;50778;-74
2023/01/03 04:18:48;;;;;;;;;;;;;;;17.54;68.76;101813.33;2270307;78;51971;-74
2023/01/03 04:21:50;;;;;;;;;;;;;;;17.54;68.68;101813.33;2245620;78;52392;-73
2023/01/03 04:24:51;;;;;;;;;;;;;;;17.54;68.74;101817.34;2269008;77;51412;-74
2023/01/03 04:27:53;;;;;;;;;;;;;;;17.54;68.71;101818.69;2268196;77;51498;-75
2023/01/03 04:30:54;;;;;;;;;;;;;;;17.54;68.67;101832.06;2255176;77;51491;-75
2023/01/03 04:33:56;;;;;;;;;;;;;;;17.52;68.71;101824.70;2185884;79;51079;-74
2023/01/03 04:36:58;;;;;;;;;;;;;;;17.53;68.64;101843.77;2231922;79;50390;-74
2023/01/03 04:39:59;;;;;;;;;;;;;;;17.56;68.43;101845.31;2232003;79;50394;-74
2023/01/03 04:46:20;;;;;;;;;;;;;;;17.64;68.07;101850.27;2213268;79;22547;-75
2023/01/03 04:49:22;;;;;;;;;;;;;;;17.66;67.86;101857.32;2232496;79;50327;-76
2023/01/03 04:52:23;;;;;;;;;;;;;;;17.60;68.11;101860.09;2232524;79;50425;-76
2023/01/03 04:55:25;;;;;;;;;;;;;;;17.57;68.17;101858.56;2232504;79;50423;-76
2023/01/03 04:58:26;;;;;;;;;;;;;;;17.57;68.27;101862.57;2201970;78;51147;-76
2023/01/03 05:01:28;;;;;;;;;;;;;;;17.56;68.30;101865.38;2258342;78;50732;-77
2023/01/03 05:04:30;;;;;;;;;;;;;;;17.56;68.32;101867.56;2251121;79;49926;-76
2023/01/03 05:07:31;;;;;;;;;;;;;;;17.56;68.19;101866.22;2250955;79;50604;-76
2023/01/03 05:10:33;;;;;;;;;;;;;;;17.56;68.32;101873.41;2261702;78;49708;-76
2023/01/03 05:13:34;;;;;;;;;;;;;;;17.54;68.41;101879.40;2251053;79;50264;-76
2023/01/03 05:16:36;;;;;;;;;;;;;;;17.53;68.56;101881.23;2250813;79;50643;-76
2023/01/03 05:25:48;;;;;;;;;;;;;;;17.53;68.50;101882.58;2264307;78;51625;-76
2023/01/03 05:26:02;;;;;;;;;;;;;;;17.52;68.55;101883.58;2260572;78;22210;-77
2023/01/03 05:29:03;;;;;;;;;;;;;;;17.52;68.50;101887.59;2262100;78;50460;-76
2023/01/03 05:32:05;;;;;;;;;;;;;;;17.52;68.52;101888.93;2257590;77;50182;-76
2023/01/03 05:35:07;;;;;;;;;;;;;;;17.52;68.53;101894.28;2265724;78;50123;-77
2023/01/03 05:38:08;;;;;;;;;;;;;;;17.52;68.47;101892.95;2251136;79;50334;-77
2023/01/03 05:41:10;;;;;;;;;;;;;;;17.50;68.43;101890.90;2251465;79;50658;-76
2023/01/03 05:44:11;;;;;;;;;;;;;;;17.48;68.21;101887.52;2252902;78;50667;-75
2023/01/03 05:47:13;;;;;;;;;;;;;;;17.55;68.13;101898.00;2199544;79;50163;-76
2023/01/03 05:50:15;;;;;;;;;;;;;;;17.67;67.81;101904.50;2232494;78;51471;-75
2023/01/03 05:53:16;;;;;;;;;;;;;;;17.66;69.03;101910.35;2232496;78;50671;-76
2023/01/03 05:56:18;;;;;;;;;;;;;;;17.63;69.40;101905.30;2232243;78;50648;-77
2023/01/03 05:59:21;;;;;;;;;;;;;;;17.74;68.33;101907.78;2234233;78;50828;-76
2023/01/03 06:02:23;;;;;;;;;;;;;;;17.73;68.23;101911.97;2269352;78;50341;-75
2023/01/03 06:05:24;;;;;;;;;;;;;;;17.67;69.25;101912.03;2270798;77;50805;-76
2023/01/03 06:08:26;;;;;;;;;;;;;;;17.64;70.08;101929.22;2268872;77;51456;-76
2023/01/03 06:11:27;;;;;;;;;;;;;;;17.60;69.63;101931.86;2213137;78;51578;-74
2023/01/03 06:14:29;;;;;;;;;;;;;;;17.58;69.42;101928.98;2269775;78;51513;-75
2023/01/03 06:20:50;;;;;;;;;;;;;;;17.59;70.23;101938.18;2268439;78;22324;-76
2023/01/03 06:23:51;;;;;;;;;;;;;;;17.61;70.13;101934.87;2241874;77;51647;-77
2023/01/03 06:26:53;;;;;;;;;;;;;;;17.58;69.95;101932.49;2266992;78;50780;-76
2023/01/03 06:29:54;;;;;;;;;;;;;;;17.58;69.75;101939.69;2267016;78;50742;-77
2023/01/03 06:32:56;;;;;;;;;;;;;;;17.56;69.88;101937.14;2266567;78;50739;-77
2023/01/03 06:35:59;;;;;;;;;;;;;;;17.59;69.54;101940.86;2241658;78;53350;-77
2023/01/03 06:39:01;;;;;;;;;;;;;;;17.60;69.27;101947.08;2265522;77;50764;-77
2023/01/03 06:42:38;;;;;;;;;;;;;;;17.57;70.06;101955.37;2264709;78;50260;-76
2023/01/03 06:55:06;;;;;;;;;;;;;;;17.59;70.03;101962.77;2267529;78;22204;-75
2023/01/03 06:58:08;;;;;;;;;;;;;;;17.60;70.04;101964.48;2266965;78;50273;-76
2023/01/03 07:01:10;;;;;;;;;;;;;;;17.61;70.40;101976.36;2243903;78;51229;-76
2023/01/03 07:04:11;;;;;;;;;;;;;;;17.62;70.31;101982.55;2267213;78;50752;-77
2023/01/03 07:07:13;;;;;;;;;;;;;;;17.64;70.16;101984.09;2266939;78;50736;-77
2023/01/03 07:10:14;;;;;;;;;;;;;;;17.57;70.75;101989.70;2264292;78;51570;-76
2023/01/03 07:16:36;;;;;;;;;;;;;;;17.41;63.93;101998.78;2232281;79;23346;-76
2023/01/03 07:19:37;;;;;;;;;;;;;;;17.40;64.55;101999.28;2209285;79;50197;-77
2023/01/03 07:22:39;;;;;;;;;;;;;;;17.40;65.65;101999.78;2256597;78;51403;-76
2023/01/03 07:25:41;;;;;;;;;;;;;;;17.59;64.84;102001.08;2256729;78;50650;-77
2023/01/03 07:28:42;;;;;;;;;;;;;;;17.68;64.74;102002.57;2256325;78;50529;-76
2023/01/03 07:31:44;;;;;;;;;;;;;;;17.76;64.79;102008.04;2256870;78;51546;-76
2023/01/03 07:34:45;;;;;;;;;;;;;;;17.82;64.85;102014.17;2231782;79;52604;-76
2023/01/03 07:37:47;;;;;;;;;;;;;;;17.92;64.77;102014.99;2231638;79;52240;-77
2023/01/03 07:40:49;;;;;;;;;;;;;;;17.99;64.71;102016.11;2247474;78;50063;-76
2023/01/03 07:43:50;;;;;;;;;;;;;;;18.06;64.62;102014.55;2266162;78;50146;-76
2023/01/03 07:46:52;;;;;;;;;;;;;;;18.12;64.55;102017.13;2265966;78;50300;-76
2023/01/03 07:49:53;;;;;;;;;;;;;;;18.08;64.67;102022.91;2264468;78;50745;-76
2023/01/03 07:52:55;;;;;;;;;;;;;;;18.13;64.57;102025.50;2264342;78;50744;-76
2023/01/03 07:56:03;;;;;;;;;;;;;;;18.14;64.59;102029.05;2266210;78;51530;-76
2023/01/03 07:59:05;;;;;;;;;;;;;;;18.06;64.80;102025.25;2264499;78;51543;-76
2023/01/03 08:02:07;;;;;;;;;;;;;;;18.03;64.97;102028.23;2266342;78;49550;-76
2023/01/03 08:05:09;;;;;;;;;;;;;;;18.04;64.95;102034.42;2264541;78;51530;-76
2023/01/03 08:08:10;;;;;;;;;;;;;;;18.03;64.96;102044.77;2263531;78;51569;-76
2023/01/03 08:14:32;;;;;;;;;;;;;;;18.01;65.13;102041.42;2271122;77;22471;-77
2023/01/03 08:17:33;;;;;;;;;;;;;;;17.96;65.19;102043.69;2270894;77;50346;-76
2023/01/03 08:20:35;;;;;;;;;;;;;;;17.98;65.20;102053.27;2269001;78;50411;-76
2023/01/03 08:23:37;;;;;;;;;;;;;;;17.95;65.21;102061.56;2270809;78;50299;-77
2023/01/03 08:26:38;;;;;;;;;;;;;;;17.93;65.33;102061.36;2245260;78;51867;-77
2023/01/03 08:29:40;;;;;;;;;;;;;;;17.91;65.43;102058.84;2270788;76;50686;-76
2023/01/03 08:32:41;;;;;;;;;;;;;;;17.86;65.55;102065.62;2270776;77;51582;-77
2023/01/03 08:35:44;;;;;;;;;;;;;;;17.83;65.64;102058.72;2269099;78;51433;-77
2023/01/03 08:38:48;;;;;;;;;;;;;;;17.78;65.85;102077.02;2235148;78;52349;-77
2023/01/03 08:41:54;;;;;;;;;;;;;;;17.77;65.82;102076.15;2256928;78;50397;-77
2023/01/03 08:44:59;;;;;;;;;;;;;;;17.77;65.88;102082.84;2249924;78;51505;-76
2023/01/03 08:48:01;;;;;;;;;;;;;;;17.77;65.88;102072.63;2250675;79;50843;-75
2023/01/03 08:51:03;;;;;;;;;;;;;;;17.79;65.82;102081.37;2250876;79;50330;-76
2023/01/03 08:54:04;;;;;;;;;;;;;;;17.74;65.99;102080.95;2250863;78;50749;-77
2023/01/03 08:57:06;;;;;;;;;;;;;;;17.69;66.12;102076.02;2261350;78;50758;-76
2023/01/03 09:00:08;;;;;;;;;;;;;;;17.66;66.25;102080.33;2250877;79;51584;-77
2023/01/03 09:03:09;;;;;;;;;;;;;;;17.64;66.34;102083.63;2250879;79;50441;-76
2023/01/03 09:06:11;;;;;;;;;;;;;;;17.61;66.45;102094.13;2250619;78;50428;-77
2023/01/03 09:09:13;;;;;;;;;;;;;;;17.57;66.55;102087.38;2256555;78;50239;-75
2023/01/03 09:12:14;;;;;;;;;;;;;;;17.64;66.32;102097.85;2239943;78;50668;-75
2023/01/03 09:15:16;;;;;;;;;;;;;;;17.65;66.21;102102.73;2236354;79;52500;-76
2023/01/03 09:18:17;;;;;;;;;;;;;;;17.75;65.96;102107.59;2261639;77;53646;-75
2023/01/03 09:21:19;;;;;;;;;;;;;;;17.81;65.81;102115.58;2250611;79;52716;-75
2023/01/03 09:24:20;;;;;;;;;;;;;;;17.85;65.64;102115.63;2250705;79;51470;-76
2023/01/03 09:27:22;;;;;;;;;;;;;;;17.89;65.53;102122.91;2261048;78;49593;-75
2023/01/03 09:30:24;;;;;;;;;;;;;;;17.91;65.46;102128.47;2261520;77;50174;-76
2023/01/03 09:33:25;;;;;;;;;;;;;;;17.90;65.41;102117.89;2250622;78;50671;-76
2023/01/03 09:36:27;;;;;;;;;;;;;;;17.88;65.48;102122.53;2261291;78;51497;-76
2023/01/03 09:39:28;;;;;;;;;;;;;;;17.84;65.55;102124.66;2233963;78;50956;-76
2023/01/03 09:45:50;;;;;;;;;;;;;;;17.74;65.93;102126.47;2269219;77;23351;-75
2023/01/03 09:48:52;;;;;;;;;;;;;;;17.70;65.98;102128.59;2268568;77;50292;-75
2023/01/03 10:05:36;;;;;;;;;;;;;;;17.83;65.56;102129.67;2284886;76;22374;-75
2023/01/03 10:08:56;;;;;;;;;;;;;;;17.75;65.68;102123.66;2284437;75;50822;-75
2023/01/03 10:12:01;;;;;;;;;;;;;;;17.76;65.84;102125.84;2274697;77;50019;-75
2023/01/03 10:15:23;;;;;;;;;;;;;;;17.72;65.93;102124.42;2256964;77;50440;-75
2023/01/03 10:18:35;;;;;;;;;;;;;;;17.63;66.20;102122.10;2257011;77;51608;-75
2023/01/03 10:21:44;;;;;;;;;;;;;;;17.60;66.19;102131.26;2257003;77;51525;-75
2023/01/03 10:25:00;;;;;;;;;;;;;;;17.67;65.97;102124.83;2256621;77;50364;-74
2023/01/03 10:28:02;;;;;;;;;;;;;;;17.75;65.77;102125.47;2256832;79;50790;-75
2023/01/03 10:31:05;;;;;;;;;;;;;;;17.84;65.44;102120.64;2232547;79;50184;-75
2023/01/03 10:34:09;;;;;;;;;;;;;;;17.86;65.38;102118.67;2254411;77;50451;-75
2023/01/03 10:37:17;;;;;;;;;;;;;;;17.82;65.42;102118.59;2250604;79;51549;-75
2023/01/03 10:40:18;;;;;;;;;;;;;;;17.81;65.45;102131.14;2257282;78;51545;-75
2023/01/03 10:43:21;;;;;;;;;;;;;;;17.80;65.50;102112.53;2266608;78;50993;-76
2023/01/03 10:46:25;;;;;;;;;;;;;;;17.75;65.61;102123.66;2264448;78;51554;-75
2023/01/03 10:49:31;;;;;;;;;;;;;;;17.76;65.59;102124.50;2264728;78;22618;-75
2023/01/03 10:52:31;;;;;;;;;;;;;;;17.63;66.06;102120.77;2263785;78;23128;-75
2023/01/03 10:55:33;;;;;;;;;;;;;;;17.63;66.01;102124.28;2266030;78;52563;-75
2023/01/03 10:58:34;;;;;;;;;;;;;;;17.70;65.79;102120.56;2264255;78;50690;-75
2023/01/03 11:01:36;;;;;;;;;;;;;;;17.74;65.65;102131.81;2264477;78;51490;-75
2023/01/03 11:04:37;;;;;;;;;;;;;;;17.84;65.32;102130.02;2264508;78;51417;-75
2023/01/03 11:07:47;;;;;;;;;;;;;;;17.86;65.25;102123.19;2241004;78;51243;-76
2023/01/03 11:10:53;;;;;;;;;;;;;;;17.82;65.31;102119.44;2258648;78;50562;-76
2023/01/03 11:13:56;;;;;;;;;;;;;;;17.85;65.21;102115.63;2263903;77;50486;-75
2023/01/03 11:16:59;;;;;;;;;;;;;;;17.81;65.30;102118.26;2272437;77;50420;-76
2023/01/03 11:20:01;;;;;;;;;;;;;;;17.80;65.38;102116.08;2245502;78;49627;-76
2023/01/03 11:23:03;;;;;;;;;;;;;;;17.80;65.45;102119.22;2269130;78;50656;-76
2023/01/03 11:26:06;;;;;;;;;;;;;;;17.69;65.74;102114.00;2268795;77;51397;-76
2023/01/03 11:29:26;;;;;;;;;;;;;;;17.64;65.81;102113.08;2268672;78;51435;-76
2023/01/03 11:32:35;;;;;;;;;;;;;;;17.71;65.62;102112.03;2245583;78;51021;-75
2023/01/03 11:35:38;;;;;;;;;;;;;;;17.82;65.28;102112.74;2269171;78;50444;-76
2023/01/03 11:38:58;;;;;;;;;;;;;;;17.85;65.18;102116.97;2268863;77;50395;-75
2023/01/03 11:42:07;;;;;;;;;;;;;;;17.83;65.23;102122.98;2261566;77;49955;-75
2023/01/03 11:45:14;;;;;;;;;;;;;;;17.81;65.29;102120.94;2269037;78;50313;-76
2023/01/03 11:48:20;;;;;;;;;;;;;;;17.80;65.30;102114.74;2278070;77;50435;-76
2023/01/03 11:51:26;;;;;;;;;;;;;;;17.77;65.38;102101.58;2269175;77;50261;-75
2023/01/03 11:54:29;;;;;;;;;;;;;;;17.77;65.46;102103.42;2269107;78;51645;-76
2023/01/03 11:57:33;;;;;;;;;;;;;;;17.72;65.59;102115.05;2245254;78;50987;-76
2023/01/03 12:00:42;;;;;;;;;;;;;;;17.63;65.89;102121.60;2269028;77;50841;-75
2023/01/03 12:03:57;;;;;;;;;;;;;;;17.63;65.75;102118.92;2269012;78;50388;-75
2023/01/03 12:07:02;;;;;;;;;;;;;;;17.72;65.45;102119.91;2269063;78;50376;-76
2023/01/03 12:10:04;;;;;;;;;;;;;;;17.79;65.22;102114.38;2243031;78;51743;-75
2023/01/03 12:13:26;;;;;;;;;;;;;;;17.85;65.04;102115.63;2265209;78;50703;-75
2023/01/03 12:16:31;;;;;;;;;;;;;;;17.81;65.09;102116.42;2269108;78;50321;-76
2023/01/03 12:19:51;;;;;;;;;;;;;;;17.75;65.28;102112.08;2269199;77;50794;-75
2023/01/03 12:22:54;;;;;;;;;;;;;;;17.77;65.30;102120.82;2245488;78;49654;-76
2023/01/03 12:25:57;;;;;;;;;;;;;;;17.76;65.26;102117.30;2269070;77;50384;-76
2023/01/03 12:29:04;;;;;;;;;;;;;;;17.70;65.47;102121.03;2269046;78;51633;-76
2023/01/03 12:32:06;;;;;;;;;;;;;;;17.62;65.76;102121.27;2269180;77;50684;-75
2023/01/03 12:35:15;;;;;;;;;;;;;;;17.59;65.81;102112.16;2228982;78;50971;-75
2023/01/03 12:38:18;;;;;;;;;;;;;;;17.61;65.73;102122.73;2259203;78;50465;-76
2023/01/03 12:41:27;;;;;;;;;;;;;;;17.70;65.47;102117.02;2264535;78;51464;-76
2023/01/03 12:44:33;;;;;;;;;;;;;;;17.85;65.02;102110.27;2264526;78;50822;-76
2023/01/03 12:47:39;;;;;;;;;;;;;;;17.90;64.82;102105.34;2264239;78;51500;-75
2023/01/03 12:50:47;;;;;;;;;;;;;;;17.91;64.74;102099.02;2266138;78;49633;-76
2023/01/03 12:53:51;;;;;;;;;;;;;;;17.91;64.69;102099.02;2264544;78;49962;-75
2023/01/03 12:56:57;;;;;;;;;;;;;;;17.90;64.74;102105.84;2264489;78;51694;-76
2023/01/03 13:00:09;;;;;;;;;;;;;;;17.90;64.69;102109.35;2264411;78;50499;-76
2023/01/03 13:03:15;;;;;;;;;;;;;;;17.83;64.91;102106.42;2241223;78;51316;-76
2023/01/03 13:06:18;;;;;;;;;;;;;;;17.81;64.96;102110.23;2264129;77;51603;-76
2023/01/03 13:09:21;;;;;;;;;;;;;;;17.68;65.40;102111.81;2269038;77;51625;-76
2023/01/03 13:12:24;;;;;;;;;;;;;;;17.68;65.37;102110.48;2269038;78;50333;-75
2023/01/03 13:15:27;;;;;;;;;;;;;;;17.69;65.30;102115.33;2245505;78;52477;-76
2023/01/03 13:18:30;;;;;;;;;;;;;;;17.70;65.26;102108.52;2268949;78;51508;-76
2023/01/03 13:21:50;;;;;;;;;;;;;;;17.67;65.30;102103.42;2269011;78;50663;-76
2023/01/03 13:24:53;;;;;;;;;;;;;;;17.72;65.26;102101.66;2268991;77;50311;-76
2023/01/03 13:27:59;;;;;;;;;;;;;;;17.67;65.42;102086.02;2245225;78;51357;-77
2023/01/03 13:31:17;;;;;;;;;;;;;;;17.62;65.50;102070.41;2269146;78;53287;-75
2023/01/03 13:34:20;;;;;;;;;;;;;;;17.60;65.59;102079.06;2266166;78;51440;-76
2023/01/03 13:37:40;;;;;;;;;;;;;;;17.58;65.64;102078.86;2269155;77;50674;-76
2023/01/03 13:40:43;;;;;;;;;;;;;;;17.53;65.71;102080.61;2245884;78;51187;-76
2023/01/03 13:43:46;;;;;;;;;;;;;;;17.53;65.75;102083.28;2269048;78;51281;-76
2023/01/03 13:46:47;;;;;;;;;;;;;;;17.59;65.50;102088.56;2269057;78;51464;-76
2023/01/03 13:49:49;;;;;;;;;;;;;;;17.74;65.06;102082.30;2269094;78;51341;-78
2023/01/03 13:52:57;;;;;;;;;;;;;;;17.83;64.76;102092.19;2245640;78;52520;-76
2023/01/03 13:55:59;;;;;;;;;;;;;;;17.86;64.59;102081.19;2269108;78;51592;-76
2023/01/03 13:59:12;;;;;;;;;;;;;;;17.80;64.69;102080.41;2269074;78;50287;-75
2023/01/03 14:02:18;;;;;;;;;;;;;;;17.79;64.76;102076.02;2269376;78;50838;-76
2023/01/03 14:05:24;;;;;;;;;;;;;;;17.75;64.84;102079.48;2263045;78;51520;-76
2023/01/03 14:08:28;;;;;;;;;;;;;;;17.73;64.89;102087.30;2265228;77;50353;-76
2023/01/03 14:11:32;;;;;;;;;;;;;;;17.75;64.83;102087.98;2264342;78;51523;-76
2023/01/03 14:14:34;;;;;;;;;;;;;;;17.64;65.19;102100.53;2264532;78;51678;-76
2023/01/03 14:17:37;;;;;;;;;;;;;;;17.57;65.45;102096.75;2265977;78;52643;-75
2023/01/03 14:20:39;;;;;;;;;;;;;;;17.58;65.35;102098.43;2264454;78;50686;-75
2023/01/03 14:23:40;;;;;;;;;;;;;;;17.67;65.07;102093.20;2264533;78;50654;-75
2023/01/03 14:26:42;;;;;;;;;;;;;;;17.77;64.73;102084.68;2264374;78;50057;-77
2023/01/03 14:29:45;;;;;;;;;;;;;;;17.81;64.54;102087.47;2265986;78;51680;-76
2023/01/03 14:32:47;;;;;;;;;;;;;;;17.82;64.49;102093.16;2264369;78;50711;-76
2023/01/03 14:35:48;;;;;;;;;;;;;;;17.87;64.37;102100.77;2258668;78;50630;-75
2023/01/03 14:38:51;;;;;;;;;;;;;;;17.79;64.54;102106.80;2268719;78;50623;-75
2023/01/03 14:41:52;;;;;;;;;;;;;;;17.76;64.60;102110.61;2245229;77;51938;-75
2023/01/03 14:44:55;;;;;;;;;;;;;;;17.72;64.80;102111.03;2270580;76;50623;-75
2023/01/03 14:47:57;;;;;;;;;;;;;;;17.70;64.83;102117.88;2268531;77;51537;-77
2023/01/03 14:51:04;;;;;;;;;;;;;;;17.58;65.22;102114.48;2268843;78;50628;-76
2023/01/03 14:54:06;;;;;;;;;;;;;;;17.56;65.25;102114.28;2245223;78;52527;-76
2023/01/03 14:57:09;;;;;;;;;;;;;;;17.63;65.04;102109.56;2268596;77;51397;-75
2023/01/03 15:00:13;;;;;;;;;;;;;;;17.73;64.76;102120.77;2268760;78;51586;-75
2023/01/03 15:03:14;;;;;;;;;;;;;;;17.84;64.36;102104.58;2268789;77;50443;-75
2023/01/03 15:06:17;;;;;;;;;;;;;;;17.88;64.23;102106.00;2229510;78;51656;-75
2023/01/03 15:09:21;;;;;;;;;;;;;;;17.83;64.35;102109.09;2264649;78;51552;-76
2023/01/03 15:12:22;;;;;;;;;;;;;;;17.83;64.30;102113.61;2262408;78;51551;-76
2023/01/03 15:15:28;;;;;;;;;;;;;;;17.86;64.23;102116.00;2251376;78;50776;-76
2023/01/03 15:18:31;;;;;;;;;;;;;;;17.84;64.27;102112.61;2236023;79;50193;-76
2023/01/03 15:21:33;;;;;;;;;;;;;;;17.81;64.35;102118.26;2251172;79;50324;-76
2023/01/03 15:24:38;;;;;;;;;;;;;;;17.75;64.49;102118.77;2251187;79;50394;-77
2023/01/03 15:27:41;;;;;;;;;;;;;;;17.66;64.74;102126.33;2251260;79;50816;-76
2023/01/03 15:30:47;;;;;;;;;;;;;;;17.63;64.82;102121.60;2236990;79;51758;-76
2023/01/03 15:33:59;;;;;;;;;;;;;;;17.74;64.53;102121.11;2251415;79;50346;-76
2023/01/03 15:37:05;;;;;;;;;;;;;;;17.83;64.26;102127.00;2250594;78;50398;-76
2023/01/03 15:40:09;;;;;;;;;;;;;;;17.89;64.06;102121.06;2256012;78;51398;-76
2023/01/03 15:43:24;;;;;;;;;;;;;;;17.92;63.88;102130.64;2258129;78;51745;-76
2023/01/03 15:46:23;;;;;;;;;;;;;;;17.93;63.88;102133.66;2231474;79;23678;-76
2023/01/03 15:49:24;;;;;;;;;;;;;;;17.88;64.00;102135.92;2232487;78;50650;-75
2023/01/03 15:52:26;;;;;;;;;;;;;;;17.85;64.00;102138.39;2233129;79;50326;-76
2023/01/03 15:55:28;;;;;;;;;;;;;;;17.81;64.12;102141.02;2204879;78;52502;-75
2023/01/03 15:58:29;;;;;;;;;;;;;;;17.75;64.28;102142.41;2268971;77;51464;-75
2023/01/03 16:01:31;;;;;;;;;;;;;;;17.68;64.52;102143.10;2268799;78;52331;-75
2023/01/03 16:04:32;;;;;;;;;;;;;;;17.66;64.58;102150.42;2280663;75;50643;-76
2023/01/03 16:07:35;;;;;;;;;;;;;;;17.75;64.40;102150.43;2256674;78;52263;-76
2023/01/03 16:10:36;;;;;;;;;;;;;;;17.82;64.24;102148.05;2275144;77;50691;-74
2023/01/03 16:13:45;;;;;;;;;;;;;;;17.92;63.92;102146.21;2264210;78;51485;-75
2023/01/03 16:16:48;;;;;;;;;;;;;;;17.93;63.82;102142.56;2263882;78;50704;-75
2023/01/03 16:19:50;;;;;;;;;;;;;;;17.92;63.86;102147.55;2264178;78;50690;-75
2023/01/03 16:22:52;;;;;;;;;;;;;;;17.90;63.93;102144.16;2264258;78;50289;-75
2023/01/03 16:25:53;;;;;;;;;;;;;;;17.90;63.91;102144.66;2264067;78;51457;-75
2023/01/03 16:28:55;;;;;;;;;;;;;;;17.90;63.83;102144.16;2263349;77;50716;-75
2023/01/03 16:31:57;;;;;;;;;;;;;;;17.86;63.97;102141.94;2239344;77;52444;-75
2023/01/03 16:34:59;;;;;;;;;;;;;;;17.78;64.19;102141.27;2296449;77;50469;-75
2023/01/03 16:38:01;;;;;;;;;;;;;;;17.66;64.55;102135.20;2287392;77;49962;-75
2023/01/03 16:41:02;;;;;;;;;;;;;;;17.66;64.60;102129.84;2301394;76;50396;-76
2023/01/03 16:44:04;;;;;;;;;;;;;;;17.81;64.23;102141.02;2247833;77;50380;-76
2023/01/03 16:47:06;;;;;;;;;;;;;;;17.90;63.98;102146.84;2310851;75;50452;-76